Time;durP1;ratioP1;P1;durP2;ratioP2;P2;SDS_P1;SDS_P2;PMS_P1;PMS_P2;Temp;Humidity;BMP_temperature;BMP_pressure;BME280_temperature;BME280_humidity;BME280_pressure;Samples;Min_cycle;Max_cycle;Signal;HPM_P1;HPM_P2
2022/10/19 00:01:00;;;;;;;2.30;0.10;;;23.80;65.10;;;;;;5048817;28;20048;-47
2022/10/19 00:03:27;;;;;;;;;;;23.80;65.10;;;;;;5048859;28;20136;-47
2022/10/19 00:05:55;;;;;;;0.55;0.28;;;23.80;65.00;;;;;;5048878;28;19946;-49
2022/10/19 00:08:22;;;;;;;0.30;0.10;;;23.80;65.10;;;;;;5048857;28;20051;-47
2022/10/19 00:10:49;;;;;;;0.10;0.10;;;23.80;65.10;;;;;;5045729;28;20045;-46
2022/10/19 00:13:16;;;;;;;0.52;0.10;;;23.80;65.10;;;;;;5045537;28;20512;-46
2022/10/19 00:15:44;;;;;;;0.55;0.10;;;23.80;64.90;;;;;;5048284;28;20041;-47
2022/10/19 00:18:11;;;;;;;1.80;0.90;;;23.80;64.80;;;;;;5048530;28;20569;-48
2022/10/19 00:20:38;;;;;;;1.75;0.47;;;23.80;64.80;;;;;;5048630;28;20452;-47
2022/10/19 00:23:06;;;;;;;0.30;0.10;;;23.80;64.70;;;;;;5048707;28;20646;-46
2022/10/19 00:25:33;;;;;;;0.63;0.30;;;23.80;64.70;;;;;;5048466;28;20080;-48
2022/10/19 00:28:00;;;;;;;0.15;0.15;;;23.80;65.20;;;;;;5048699;28;20116;-48
2022/10/19 00:30:27;;;;;;;2.22;0.20;;;23.80;64.70;;;;;;5048331;28;20040;-49
2022/10/19 00:32:54;;;;;;;0.28;0.20;;;23.80;64.90;;;;;;5048248;28;20049;-49
2022/10/19 00:35:21;;;;;;;1.05;0.10;;;23.80;64.70;;;;;;5048329;28;20028;-48
2022/10/19 00:37:48;;;;;;;0.32;0.10;;;23.80;64.60;;;;;;5048027;28;20068;-50
2022/10/19 00:40:17;;;;;;;0.47;0.20;;;23.80;64.60;;;;;;5048298;28;20505;-48
2022/10/19 00:42:44;;;;;;;0.20;0.20;;;23.80;64.60;;;;;;5049644;28;20573;-50
2022/10/19 00:45:16;;;;;;;1.63;0.20;;;23.80;64.60;;;;;;5047657;28;20047;-48
2022/10/19 00:47:44;;;;;;;1.85;0.22;;;23.80;64.50;;;;;;5048089;28;20040;-48
2022/10/19 00:50:16;;;;;;;0.32;0.20;;;23.80;64.60;;;;;;5048331;28;20037;-48
2022/10/19 00:52:43;;;;;;;0.40;0.20;;;23.80;64.60;;;;;;5047891;28;20135;-48
2022/10/19 00:55:11;;;;;;;2.50;0.20;;;23.70;64.60;;;;;;5048035;28;20495;-48
2022/10/19 00:57:40;;;;;;;0.50;0.20;;;23.70;64.60;;;;;;5047616;28;20049;-48
2022/10/19 01:00:08;;;;;;;0.20;0.20;;;23.80;64.70;;;;;;5048337;28;20037;-47
2022/10/19 01:02:36;;;;;;;0.20;0.10;;;23.70;64.60;;;;;;5044427;28;20041;-45
2022/10/19 01:05:03;;;;;;;0.20;0.10;;;23.70;64.70;;;;;;5045450;28;20041;-51
2022/10/19 01:07:31;;;;;;;0.28;0.10;;;23.70;64.70;;;;;;5047241;28;20052;-50
2022/10/19 01:10:00;;;;;;;0.28;0.20;;;23.70;64.70;;;;;;5047212;28;20044;-49
2022/10/19 01:12:56;;;;;;;0.30;0.30;;;23.70;64.70;;;;;;5048668;28;20041;-46
2022/10/19 01:15:32;;;;;;;0.30;0.10;;;23.70;64.60;;;;;;5045672;28;20496;-46
2022/10/19 01:18:07;;;;;;;3.50;0.30;;;23.70;64.70;;;;;;5046627;28;20132;-49
2022/10/19 01:21:01;;;;;;;0.20;0.10;;;23.70;64.70;;;;;;5046840;28;20051;-46
2022/10/19 01:23:56;;;;;;;0.10;0.10;;;23.70;64.70;;;;;;5046769;28;20037;-47
2022/10/19 01:26:46;;;;;;;0.22;0.10;;;23.70;64.80;;;;;;4984917;28;20256;-47
2022/10/19 01:29:22;;;;;;;0.40;0.10;;;23.70;64.80;;;;;;4983373;28;20253;-49
2022/10/19 01:31:56;;;;;;;;;;;23.70;64.80;;;;;;4983559;28;20481;-46
2022/10/19 01:34:25;;;;;;;1.25;1.00;;;23.60;64.80;;;;;;4983694;28;20636;-46
2022/10/19 01:36:59;;;;;;;0.25;0.20;;;23.60;64.90;;;;;;4984939;28;20042;-46
2022/10/19 01:39:34;;;;;;;0.45;0.22;;;23.60;64.80;;;;;;4984543;28;20050;-49
2022/10/19 01:42:09;;;;;;;0.38;0.30;;;23.60;64.80;;;;;;4986153;28;20478;-50
2022/10/19 01:44:42;;;;;;;0.20;0.10;;;23.60;64.70;;;;;;4984439;28;20152;-51
2022/10/19 01:47:17;;;;;;;0.20;0.10;;;23.70;64.70;;;;;;4983459;28;20046;-49
2022/10/19 01:49:50;;;;;;;1.30;0.20;;;23.70;64.70;;;;;;4983790;28;20046;-51
2022/10/19 01:52:20;;;;;;;0.40;0.15;;;23.60;64.60;;;;;;4984278;28;20081;-49
2022/10/19 01:54:50;;;;;;;0.70;0.10;;;23.60;64.50;;;;;;4983800;28;20510;-49
2022/10/19 01:57:21;;;;;;;0.20;0.10;;;23.60;64.50;;;;;;4984149;28;20048;-47
2022/10/19 01:59:49;;;;;;;0.10;0.10;;;23.60;64.50;;;;;;4984663;28;20073;-49
2022/10/19 02:02:20;;;;;;;1.95;0.10;;;23.60;64.50;;;;;;4983920;28;20042;-46
2022/10/19 02:04:49;;;;;;;0.10;0.10;;;23.60;64.50;;;;;;5041108;28;20044;-49
2022/10/19 02:07:19;;;;;;;0.15;0.15;;;23.60;64.50;;;;;;5046525;28;20045;-50
2022/10/19 02:09:46;;;;;;;0.10;0.10;;;23.60;64.50;;;;;;5045802;28;20508;-51
2022/10/19 02:12:13;;;;;;;0.52;0.10;;;23.60;64.50;;;;;;5045891;28;20053;-50
2022/10/19 02:14:44;;;;;;;0.50;0.10;;;23.60;64.60;;;;;;5046219;28;20132;-51
2022/10/19 02:17:14;;;;;;;1.65;0.30;;;23.60;64.60;;;;;;5044738;28;20549;-47
2022/10/19 02:19:43;;;;;;;2.67;0.30;;;23.60;64.60;;;;;;5046484;28;20417;-49
2022/10/19 02:22:11;;;;;;;1.20;0.20;;;23.60;64.60;;;;;;5046419;28;20494;-51
2022/10/19 02:24:38;;;;;;;0.13;0.10;;;23.60;64.50;;;;;;5046418;28;20044;-49
2022/10/19 02:27:08;;;;;;;0.63;0.40;;;23.60;64.50;;;;;;5045835;28;20037;-51
2022/10/19 02:29:36;;;;;;;1.40;0.10;;;23.60;64.50;;;;;;5045888;28;20047;-50
2022/10/19 02:32:05;;;;;;;0.45;0.20;;;23.60;64.60;;;;;;5045667;28;20061;-50
2022/10/19 02:34:33;;;;;;;0.10;0.10;;;23.60;64.50;;;;;;5045747;28;20738;-52
2022/10/19 02:37:01;;;;;;;0.95;0.20;;;23.60;64.50;;;;;;5045740;28;20044;-52
2022/10/19 02:39:28;;;;;;;0.57;0.10;;;23.60;64.50;;;;;;5046328;28;20539;-47
2022/10/19 02:42:01;;;;;;;0.38;0.13;;;23.60;64.60;;;;;;5046113;28;20029;-50
2022/10/19 02:44:40;;;;;;;0.38;0.22;;;23.60;64.50;;;;;;5044500;28;20425;-51
2022/10/19 02:47:13;;;;;;;0.13;0.10;;;23.60;64.40;;;;;;5045231;28;20104;-46
2022/10/19 02:49:41;;;;;;;6.93;0.10;;;23.60;64.30;;;;;;5044137;28;20121;-48
2022/10/19 02:52:12;;;;;;;0.30;0.20;;;23.50;64.80;;;;;;5044007;28;20045;-49
2022/10/19 02:54:41;;;;;;;0.22;0.10;;;23.60;64.30;;;;;;5045660;28;20130;-45
2022/10/19 02:57:15;;;;;;;0.60;0.20;;;23.60;64.30;;;;;;5045037;28;20037;-50
2022/10/19 02:59:42;;;;;;;0.82;0.30;;;23.60;64.30;;;;;;5045008;28;20042;-47
2022/10/19 03:02:09;;;;;;;0.60;0.20;;;23.60;64.40;;;;;;5047053;28;20047;-48
2022/10/19 03:04:36;;;;;;;0.45;0.38;;;23.60;64.40;;;;;;5049058;28;20037;-50
2022/10/19 03:07:03;;;;;;;2.20;0.20;;;23.60;64.30;;;;;;5049165;28;20047;-46
2022/10/19 03:09:32;;;;;;;0.40;0.10;;;23.60;64.30;;;;;;5049185;28;20041;-46
2022/10/19 03:11:59;;;;;;;0.60;0.20;;;23.60;64.20;;;;;;5049039;28;20100;-49
2022/10/19 03:14:26;;;;;;;0.20;0.10;;;23.60;64.20;;;;;;5048185;28;20037;-46
2022/10/19 03:16:53;;;;;;;1.33;0.10;;;23.60;64.20;;;;;;5049110;28;20067;-49
2022/10/19 03:19:20;;;;;;;0.10;0.10;;;23.60;64.20;;;;;;5047365;28;20041;-50
2022/10/19 03:21:47;;;;;;;0.10;0.10;;;23.60;64.20;;;;;;5048737;28;20676;-52
2022/10/19 03:24:14;;;;;;;1.38;0.20;;;23.60;64.10;;;;;;5049107;28;20049;-52
2022/10/19 03:26:42;;;;;;;0.32;0.10;;;23.50;64.20;;;;;;5047387;28;20044;-49
2022/10/19 03:29:09;;;;;;;0.47;0.10;;;23.60;64.20;;;;;;5047205;28;20041;-50
2022/10/19 03:31:36;;;;;;;0.30;0.20;;;23.50;64.10;;;;;;5049439;28;20039;-48
2022/10/19 03:34:04;;;;;;;0.10;0.10;;;23.60;64.10;;;;;;5049063;28;20052;-48
2022/10/19 03:36:32;;;;;;;0.20;0.10;;;23.50;64.00;;;;;;5047710;28;20575;-48
2022/10/19 03:39:01;;;;;;;0.15;0.15;;;23.60;64.10;;;;;;5048998;28;20048;-50
2022/10/19 03:41:30;;;;;;;2.13;0.17;;;23.50;64.00;;;;;;5047441;28;20454;-50
2022/10/19 03:43:58;;;;;;;1.00;0.30;;;23.50;64.00;;;;;;5047001;28;20036;-49
2022/10/19 03:46:26;;;;;;;1.10;0.10;;;23.50;64.00;;;;;;5047526;28;20033;-50
2022/10/19 03:48:54;;;;;;;0.20;0.20;;;23.50;64.00;;;;;;5048175;28;20569;-50
2022/10/19 03:51:23;;;;;;;1.52;0.15;;;23.50;64.00;;;;;;5048243;28;20053;-49
2022/10/19 03:53:53;;;;;;;3.40;0.63;;;23.50;63.90;;;;;;5047748;28;20056;-48
2022/10/19 03:56:22;;;;;;;0.32;0.10;;;23.50;63.90;;;;;;5048217;28;20147;-48
2022/10/19 03:58:51;;;;;;;1.20;0.20;;;23.50;63.90;;;;;;5047420;28;20045;-48
2022/10/19 04:01:22;;;;;;;0.35;0.35;;;23.50;64.00;;;;;;5048256;28;20409;-46
2022/10/19 04:03:53;;;;;;;1.45;0.20;;;23.50;64.00;;;;;;5047570;28;20519;-46
2022/10/19 04:06:23;;;;;;;0.10;0.10;;;23.50;63.90;;;;;;5048095;28;20037;-47
2022/10/19 04:08:50;;;;;;;0.57;0.30;;;23.50;64.00;;;;;;5046572;28;20037;-46
2022/10/19 04:11:20;;;;;;;0.25;0.10;;;23.50;63.90;;;;;;5048186;28;20596;-47
2022/10/19 04:13:48;;;;;;;2.47;0.20;;;23.50;64.00;;;;;;5047839;28;20505;-46
2022/10/19 04:16:15;;;;;;;0.17;0.17;;;23.50;64.00;;;;;;5044630;28;20091;-49
2022/10/19 04:18:43;;;;;;;2.22;0.10;;;23.50;63.90;;;;;;5040319;28;20160;-50
2022/10/19 04:21:20;;;;;;;1.17;0.20;;;23.50;64.00;;;;;;5047964;28;20037;-50
2022/10/19 04:23:48;;;;;;;1.95;0.15;;;23.50;64.10;;;;;;5045721;28;20043;-52
2022/10/19 04:26:15;;;;;;;0.95;0.32;;;23.40;64.30;;;;;;5047429;28;20132;-52
2022/10/19 04:28:42;;;;;;;0.15;0.10;;;23.40;64.40;;;;;;5047442;28;20047;-47
2022/10/19 04:31:11;;;;;;;0.50;0.10;;;23.40;64.50;;;;;;5047390;28;20036;-50
2022/10/19 04:33:38;;;;;;;0.52;0.10;;;23.40;64.70;;;;;;5047298;28;20576;-48
2022/10/19 04:36:09;;;;;;;0.63;0.10;;;23.40;64.80;;;;;;5047188;28;20049;-48
2022/10/19 04:38:37;;;;;;;0.20;0.10;;;23.40;64.90;;;;;;5047108;28;20048;-50
2022/10/19 04:41:05;;;;;;;0.55;0.20;;;23.40;65.00;;;;;;5048474;28;20043;-49
2022/10/19 04:43:33;;;;;;;0.77;0.10;;;23.40;65.10;;;;;;5047128;28;20049;-53
2022/10/19 04:46:03;;;;;;;0.20;0.10;;;23.40;65.30;;;;;;5047312;28;20104;-51
2022/10/19 04:48:30;;;;;;;0.20;0.10;;;23.40;65.40;;;;;;5047772;28;20079;-48
2022/10/19 04:50:57;;;;;;;0.38;0.17;;;23.40;65.40;;;;;;5046976;28;20136;-49
2022/10/19 04:53:27;;;;;;;0.40;0.20;;;23.40;65.60;;;;;;5045631;28;20048;-50
2022/10/19 04:55:54;;;;;;;2.08;0.20;;;23.50;65.70;;;;;;5047187;28;20125;-48
2022/10/19 04:58:21;;;;;;;0.52;0.10;;;23.50;65.80;;;;;;5042668;28;20033;-55
2022/10/19 05:00:48;;;;;;;2.25;0.40;;;23.50;65.80;;;;;;5048066;28;20033;-61
2022/10/19 05:03:16;;;;;;;1.02;0.20;;;23.50;65.80;;;;;;5047255;28;20522;-60
2022/10/19 05:05:43;;;;;;;0.20;0.20;;;23.50;66.20;;;;;;5044679;28;20059;-61
2022/10/19 05:08:10;;;;;;;0.30;0.10;;;23.50;66.40;;;;;;5044696;28;20534;-57
2022/10/19 05:10:38;;;;;;;1.50;0.20;;;23.50;66.50;;;;;;5048412;28;20406;-62
2022/10/19 05:13:06;;;;;;;0.50;0.10;;;23.60;66.40;;;;;;5050593;28;20060;-62
2022/10/19 05:15:33;;;;;;;0.40;0.40;;;23.60;66.20;;;;;;5044177;28;20627;-61
2022/10/19 05:18:00;;;;;;;4.97;0.10;;;23.60;66.00;;;;;;5048343;28;20119;-62
2022/10/19 05:20:27;;;;;;;1.13;0.20;;;23.70;66.00;;;;;;5048070;28;20037;-62
2022/10/19 05:22:54;;;;;;;0.88;0.15;;;23.70;65.70;;;;;;5047580;28;20079;-52
2022/10/19 05:25:21;;;;;;;3.05;0.20;;;23.70;65.60;;;;;;5047733;28;20039;-51
2022/10/19 05:27:52;;;;;;;0.85;0.30;;;23.80;65.60;;;;;;5048236;28;20103;-55
2022/10/19 05:30:20;;;;;;;1.65;0.55;;;23.80;65.60;;;;;;5048118;28;20041;-55
2022/10/19 05:32:47;;;;;;;1.60;0.30;;;23.80;65.40;;;;;;5046813;28;20060;-59
2022/10/19 05:35:15;;;;;;;0.80;0.30;;;23.80;65.20;;;;;;5047938;28;20125;-56
2022/10/19 05:37:42;;;;;;;1.65;0.10;;;23.90;65.20;;;;;;5048466;28;20041;-61
2022/10/19 05:40:10;;;;;;;2.22;0.40;;;23.90;65.00;;;;;;5047517;28;20044;-56
2022/10/19 05:42:37;;;;;;;0.32;0.10;;;23.90;65.00;;;;;;5048277;28;20089;-57
2022/10/19 05:45:07;;;;;;;2.28;0.70;;;23.90;65.00;;;;;;5048198;28;20073;-49
2022/10/19 05:47:35;;;;;;;1.67;0.73;;;23.90;65.10;;;;;;5047242;28;20536;-55
2022/10/19 05:50:02;;;;;;;1.20;0.52;;;23.90;64.10;;;;;;5046418;28;20045;-55
2022/10/19 05:52:29;;;;;;;4.10;0.70;;;23.90;62.80;;;;;;5046674;28;20047;-57
2022/10/19 05:54:57;;;;;;;5.20;0.65;;;23.70;62.40;;;;;;5043595;28;20049;-55
2022/10/19 05:57:25;;;;;;;2.75;0.88;;;23.60;62.20;;;;;;5045005;28;20399;-56
2022/10/19 05:59:55;;;;;;;2.40;0.65;;;23.50;61.80;;;;;;5043753;28;20120;-57
2022/10/19 06:02:24;;;;;;;2.38;0.77;;;23.30;61.80;;;;;;5046201;28;20456;-55
2022/10/19 06:04:51;;;;;;;7.07;0.77;;;23.20;61.80;;;;;;5045825;28;20052;-53
2022/10/19 06:07:18;;;;;;;2.25;1.38;;;23.10;62.00;;;;;;5045923;28;20507;-56
2022/10/19 06:09:45;;;;;;;0.88;0.85;;;22.90;62.00;;;;;;5044986;28;20044;-55
2022/10/19 06:12:12;;;;;;;4.25;0.60;;;22.80;62.10;;;;;;5046597;28;20102;-56
2022/10/19 06:14:39;;;;;;;1.42;1.08;;;22.70;62.50;;;;;;5046533;28;20041;-55
2022/10/19 06:17:06;;;;;;;1.25;1.20;;;22.60;62.80;;;;;;5042629;28;20048;-55
2022/10/19 06:19:34;;;;;;;1.15;0.68;;;22.50;62.90;;;;;;5043662;28;20040;-56
2022/10/19 06:22:02;;;;;;;4.82;0.98;;;22.50;63.20;;;;;;5047595;28;20417;-57
2022/10/19 06:24:29;;;;;;;1.92;0.50;;;22.40;63.40;;;;;;5046444;28;20036;-54
2022/10/19 06:26:56;;;;;;;2.70;1.77;;;22.30;63.50;;;;;;5047423;28;20444;-53
2022/10/19 06:29:23;;;;;;;2.35;0.82;;;22.20;63.50;;;;;;5047328;28;20049;-55
2022/10/19 06:31:50;;;;;;;5.07;0.43;;;22.10;63.60;;;;;;5047598;28;20067;-54
2022/10/19 06:34:17;;;;;;;1.15;1.08;;;22.10;63.80;;;;;;5047315;28;20588;-54
2022/10/19 06:36:46;;;;;;;2.10;0.60;;;22.00;63.90;;;;;;5051792;28;20053;-52
2022/10/19 06:39:13;;;;;;;3.63;1.40;;;22.00;64.10;;;;;;5051405;28;20051;-53
2022/10/19 06:41:40;;;;;;;2.40;0.88;;;21.90;64.30;;;;;;5051394;28;20044;-53
2022/10/19 06:44:18;;;;;;;3.40;0.77;;;21.80;64.40;;;;;;5051521;28;20055;-55
2022/10/19 06:46:45;;;;;;;2.97;0.77;;;21.80;64.50;;;;;;5049862;28;20413;-55
2022/10/19 06:49:13;;;;;;;3.78;1.10;;;21.70;64.50;;;;;;5050838;28;20059;-55
2022/10/19 06:51:40;;;;;;;2.45;0.80;;;21.70;64.70;;;;;;5051039;28;20073;-52
2022/10/19 06:54:09;;;;;;;3.00;0.88;;;21.60;64.90;;;;;;5046620;28;20049;-54
2022/10/19 06:56:36;;;;;;;8.60;2.45;;;21.60;65.20;;;;;;5049076;28;20041;-57
2022/10/19 06:59:03;;;;;;;2.65;1.42;;;21.50;65.30;;;;;;5049961;28;20037;-54
2022/10/19 07:01:30;;;;;;;2.55;1.17;;;21.50;65.50;;;;;;5050750;28;20128;-51
2022/10/19 07:03:57;;;;;;;4.53;1.20;;;21.50;65.50;;;;;;5050497;28;20036;-58
2022/10/19 07:06:27;;;;;;;3.45;2.03;;;21.50;65.70;;;;;;5050857;28;20112;-57
2022/10/19 07:08:54;;;;;;;3.75;0.75;;;21.40;65.70;;;;;;5049838;28;20049;-56
2022/10/19 07:11:22;;;;;;;3.38;1.05;;;21.40;66.00;;;;;;5054586;28;20068;-53
2022/10/19 07:13:50;;;;;;;5.75;0.95;;;21.40;66.10;;;;;;5050396;28;20040;-51
2022/10/19 07:16:18;;;;;;;4.22;1.35;;;21.40;66.40;;;;;;5050355;28;20124;-58
2022/10/19 07:18:46;;;;;;;4.10;1.90;;;21.40;66.20;;;;;;5050625;28;20151;-57
2022/10/19 07:21:15;;;;;;;2.00;0.88;;;21.40;66.20;;;;;;5050375;28;20727;-57
2022/10/19 07:23:44;;;;;;;8.07;3.22;;;21.40;65.90;;;;;;5050171;28;20047;-58
2022/10/19 07:26:13;;;;;;;7.82;1.40;;;21.40;65.90;;;;;;5050323;28;20486;-56
2022/10/19 07:28:43;;;;;;;5.20;0.88;;;21.30;65.70;;;;;;5050196;28;20056;-61
2022/10/19 07:31:12;;;;;;;7.03;1.00;;;21.30;65.70;;;;;;5048493;28;20037;-55
2022/10/19 07:33:40;;;;;;;3.22;1.30;;;21.30;65.60;;;;;;5050531;28;20411;-53
2022/10/19 07:36:09;;;;;;;4.70;0.90;;;21.30;65.60;;;;;;5050001;28;20199;-64
2022/10/19 07:38:37;;;;;;;3.20;1.35;;;21.30;65.60;;;;;;5050652;28;20049;-61
2022/10/19 07:41:06;;;;;;;3.03;0.80;;;21.40;65.70;;;;;;5052714;28;20045;-60
2022/10/19 07:43:34;;;;;;;5.53;0.90;;;21.30;65.50;;;;;;5052391;28;20049;-65
2022/10/19 07:46:05;;;;;;;2.35;1.45;;;21.30;65.50;;;;;;5054511;28;20123;-65
2022/10/19 07:48:32;;;;;;;8.07;1.13;;;21.30;65.60;;;;;;5051631;28;20198;-59
2022/10/19 07:51:00;;;;;;;4.15;1.73;;;21.30;65.50;;;;;;5051656;28;20044;-58
2022/10/19 07:53:28;;;;;;;1.73;0.90;;;21.30;65.40;;;;;;5053653;28;20148;-60
2022/10/19 07:55:55;;;;;;;2.97;1.40;;;21.40;65.40;;;;;;5050273;28;20049;-51
2022/10/19 07:58:22;;;;;;;7.18;2.88;;;21.30;65.30;;;;;;5049433;28;20054;-56
2022/10/19 08:00:49;;;;;;;5.78;1.63;;;21.40;65.30;;;;;;5049339;28;20037;-55
2022/10/19 08:03:17;;;;;;;11.95;1.23;;;21.40;65.30;;;;;;5049579;28;20044;-54
2022/10/19 08:05:44;;;;;;;2.53;1.33;;;21.40;65.20;;;;;;5049573;28;20048;-61
2022/10/19 08:08:11;;;;;;;5.00;1.20;;;21.40;65.90;;;;;;5045594;28;20047;-64
2022/10/19 08:10:38;;;;;;;1.27;1.00;;;21.40;65.30;;;;;;5052372;28;20417;-64
2022/10/19 08:13:05;;;;;;;3.88;1.77;;;21.40;65.40;;;;;;5054996;28;20072;-68
2022/10/19 08:15:32;;;;;;;0.80;0.80;;;21.40;65.40;;;;;;5050197;28;20059;-61
2022/10/19 08:18:00;;;;;;;6.95;1.30;;;21.50;65.40;;;;;;5046300;28;20069;-57
2022/10/19 08:20:28;;;;;;;1.33;1.00;;;21.50;65.30;;;;;;5046837;28;20079;-58
2022/10/19 08:22:55;;;;;;;4.43;1.95;;;21.60;65.30;;;;;;5050302;28;20033;-61
2022/10/19 08:25:22;;;;;;;22.15;1.45;;;21.60;65.20;;;;;;5048657;28;20047;-63
2022/10/19 08:27:49;;;;;;;4.03;2.17;;;21.60;65.20;;;;;;5044503;28;20041;-65
2022/10/19 08:30:16;;;;;;;4.57;0.90;;;21.60;65.10;;;;;;5081669;28;20119;-66
2022/10/19 08:32:44;;;;;;;4.50;1.58;;;21.70;65.60;;;;;;5050497;28;20283;-66
2022/10/19 08:35:11;;;;;;;2.72;0.93;;;21.70;65.00;;;;;;5051335;28;20051;-63
2022/10/19 08:37:39;;;;;;;5.40;1.55;;;21.80;64.90;;;;;;5050085;28;20045;-62
2022/10/19 08:40:16;;;;;;;4.57;1.63;;;21.80;64.80;;;;;;5048631;28;20498;-61
2022/10/19 08:42:52;;;;;;;1.95;0.80;;;21.80;64.60;;;;;;5046231;28;20049;-63
2022/10/19 08:45:41;;;;;;;4.25;1.15;;;21.80;64.50;;;;;;5048559;28;20045;-55
2022/10/19 08:48:28;;;;;;;8.50;1.10;;;21.90;64.50;;;;;;5044667;28;20691;-55
2022/10/19 08:50:57;;;;;;;3.88;1.05;;;21.90;64.40;;;;;;5048590;28;20064;-54
2022/10/19 08:53:33;;;;;;;6.25;1.30;;;21.90;64.50;;;;;;5047851;28;20474;-56
2022/10/19 08:56:18;;;;;;;3.92;0.95;;;21.90;64.40;;;;;;5047186;28;20159;-58
2022/10/19 08:59:03;;;;;;;3.20;1.33;;;22.00;64.30;;;;;;5043317;28;20041;-56
2022/10/19 09:01:39;;;;;;;2.75;0.65;;;22.00;64.10;;;;;;5048527;28;20041;-53
2022/10/19 09:04:07;;;;;;;;;;;22.00;64.10;;;;;;5032313;28;20140;-60
2022/10/19 09:06:40;;;;;;;2.03;0.70;;;21.90;64.20;;;;;;5048764;28;19945;-59
2022/10/19 09:09:13;;;;;;;3.28;1.70;;;22.00;64.20;;;;;;5046178;28;20041;-57
2022/10/19 09:11:46;;;;;;;3.28;0.80;;;22.10;64.10;;;;;;5049151;28;20071;-63
2022/10/19 09:14:18;;;;;;;1.95;0.95;;;22.10;64.00;;;;;;5041431;28;20110;-60
2022/10/19 09:16:46;;;;;;;3.80;1.08;;;22.10;64.00;;;;;;5048329;28;20047;-50
2022/10/19 09:19:21;;;;;;;8.30;1.40;;;22.10;63.90;;;;;;5047519;28;20049;-49
2022/10/19 09:21:51;;;;;;;5.18;1.27;;;22.20;63.90;;;;;;5046997;28;20045;-62
2022/10/19 09:24:29;;;;;;;1.10;1.00;;;22.20;63.90;;;;;;5047834;28;20052;-56
2022/10/19 09:26:58;;;;;;;7.30;2.65;;;22.20;63.80;;;;;;5045248;28;20659;-58
2022/10/19 09:29:32;;;;;;;10.02;3.90;;;22.20;63.80;;;;;;5046251;28;20389;-55
2022/10/19 09:32:01;;;;;;;6.95;2.25;;;22.30;63.70;;;;;;5047439;28;20045;-55
2022/10/19 09:34:32;;;;;;;9.73;1.48;;;22.30;63.60;;;;;;5047020;28;20041;-57
2022/10/19 09:37:00;;;;;;;3.35;0.95;;;22.40;63.60;;;;;;5047674;28;20061;-57
2022/10/19 09:39:30;;;;;;;6.78;1.45;;;22.40;63.40;;;;;;5046706;28;20029;-57
2022/10/19 09:41:59;;;;;;;5.57;0.70;;;22.40;63.30;;;;;;5047174;28;20069;-55
2022/10/19 09:44:27;;;;;;;2.97;0.85;;;22.50;63.20;;;;;;5047644;28;20037;-57
2022/10/19 09:47:02;;;;;;;1.95;1.02;;;22.50;63.10;;;;;;5047708;28;20103;-57
2022/10/19 09:49:40;;;;;;;2.30;1.90;;;22.60;63.50;;;;;;5044092;28;20072;-58
2022/10/19 09:52:29;;;;;;;2.67;0.98;;;22.60;62.90;;;;;;5044084;28;20059;-57
2022/10/19 09:55:04;;;;;;;1.38;0.73;;;22.70;62.80;;;;;;5044714;28;20051;-58
2022/10/19 09:57:31;;;;;;;7.68;0.82;;;22.70;62.80;;;;;;5044712;28;20047;-58
2022/10/19 09:59:58;;;;;;;2.15;1.05;;;22.80;62.70;;;;;;5046172;28;20127;-56
2022/10/19 10:02:31;;;;;;;3.13;0.55;;;22.80;62.50;;;;;;5047496;28;20047;-54
2022/10/19 10:05:06;;;;;;;2.38;0.90;;;22.90;62.40;;;;;;5047941;28;20041;-58
2022/10/19 10:07:36;;;;;;;3.70;0.63;;;23.00;62.20;;;;;;5041326;28;20103;-58
2022/10/19 10:10:11;;;;;;;1.35;0.50;;;23.00;62.00;;;;;;5041668;28;20045;-54
2022/10/19 10:12:40;;;;;;;1.52;0.55;;;23.10;61.70;;;;;;5049920;28;20040;-55
2022/10/19 10:15:08;;;;;;;3.33;1.80;;;23.10;61.40;;;;;;5047526;28;20517;-55
2022/10/19 10:17:36;;;;;;;2.13;0.70;;;23.20;61.40;;;;;;5047483;28;20045;-53
2022/10/19 10:20:22;;;;;;;4.25;0.70;;;23.20;61.30;;;;;;5047360;28;20041;-56
2022/10/19 10:22:56;;;;;;;3.53;0.60;;;23.30;61.00;;;;;;5042836;28;20587;-54
2022/10/19 10:25:28;;;;;;;0.30;0.22;;;23.40;61.00;;;;;;5045534;28;20044;-57
2022/10/19 10:27:59;;;;;;;2.75;0.50;;;23.50;60.90;;;;;;5043109;28;20037;-53
2022/10/19 10:30:29;;;;;;;6.35;0.47;;;23.60;61.00;;;;;;5046286;28;20040;-55
2022/10/19 10:32:56;;;;;;;3.40;0.60;;;23.60;61.00;;;;;;5045867;28;20124;-52
2022/10/19 10:35:28;;;;;;;1.42;0.30;;;23.80;61.00;;;;;;5046721;28;20848;-54
2022/10/19 10:38:06;;;;;;;1.48;0.43;;;23.90;60.90;;;;;;5047538;28;20120;-52
2022/10/19 10:40:34;;;;;;;6.07;0.60;;;24.00;60.80;;;;;;5046240;28;20479;-50
2022/10/19 10:43:07;;;;;;;3.85;0.40;;;24.10;61.10;;;;;;5045837;28;20041;-53
2022/10/19 10:45:39;;;;;;;6.20;1.20;;;24.10;61.10;;;;;;5044894;28;20448;-53
2022/10/19 10:48:20;;;;;;;1.58;0.35;;;24.30;61.30;;;;;;5042436;28;20120;-52
2022/10/19 10:50:47;;;;;;;3.33;0.40;;;24.40;61.30;;;;;;5044339;28;20072;-50
2022/10/19 10:53:39;;;;;;;1.67;0.82;;;24.50;61.50;;;;;;5046147;28;20047;-52
2022/10/19 10:56:25;;;;;;;12.73;0.50;;;24.60;61.40;;;;;;5032556;28;20505;-52
2022/10/19 10:58:58;;;;;;;4.93;0.60;;;24.70;61.60;;;;;;5047722;28;20826;-50
2022/10/19 11:01:31;;;;;;;1.45;0.22;;;24.70;61.60;;;;;;5047388;28;20048;-49
2022/10/19 11:04:03;;;;;;;2.55;0.90;;;24.80;61.50;;;;;;5047233;28;20033;-53
2022/10/19 11:06:34;;;;;;;1.83;0.57;;;24.90;61.50;;;;;;5047264;28;20456;-55
2022/10/19 11:09:10;;;;;;;7.07;0.90;;;25.00;62.00;;;;;;5047278;28;20064;-54
2022/10/19 11:11:44;;;;;;;4.68;0.30;;;25.10;61.30;;;;;;5050929;28;20048;-54
2022/10/19 11:14:26;;;;;;;4.80;0.38;;;25.20;61.30;;;;;;5045789;28;20049;-52
2022/10/19 11:16:57;;;;;;;1.52;0.30;;;25.20;61.20;;;;;;5047497;28;20045;-55
2022/10/19 11:19:26;;;;;;;1.42;0.40;;;25.30;61.00;;;;;;5046984;28;20072;-51
2022/10/19 11:22:02;;;;;;;2.67;0.52;;;25.30;60.90;;;;;;5043072;28;20048;-56
2022/10/19 11:24:39;;;;;;;0.52;0.52;;;25.40;60.80;;;;;;5050976;28;20106;-55
2022/10/19 11:27:18;;;;;;;1.95;0.40;;;25.40;60.70;;;;;;5051054;28;20505;-53
2022/10/19 11:30:01;;;;;;;1.13;0.30;;;25.50;60.60;;;;;;5044770;28;20456;-55
2022/10/19 11:32:39;;;;;;;5.18;0.45;;;25.50;60.50;;;;;;5046955;28;20049;-54
2022/10/19 11:35:19;;;;;;;1.45;0.38;;;25.60;60.60;;;;;;5049712;28;20424;-52
2022/10/19 11:37:57;;;;;;;1.50;0.65;;;25.70;60.60;;;;;;5050590;28;20037;-53
2022/10/19 11:40:31;;;;;;;1.58;0.20;;;25.70;60.50;;;;;;5044638;28;20080;-52
2022/10/19 11:43:05;;;;;;;1.05;0.30;;;25.70;60.60;;;;;;5044603;28;20134;-52
2022/10/19 11:45:47;;;;;;;1.65;0.30;;;25.80;60.60;;;;;;5050453;28;20091;-50
2022/10/19 11:48:38;;;;;;;2.45;0.22;;;25.80;60.40;;;;;;5050500;28;20036;-51
2022/10/19 11:51:11;;;;;;;1.13;0.30;;;25.90;60.40;;;;;;5044068;28;20064;-50
2022/10/19 11:53:48;;;;;;;2.08;0.52;;;25.90;60.50;;;;;;5050124;28;20057;-53
2022/10/19 11:56:21;;;;;;;1.63;0.50;;;25.90;60.30;;;;;;5049842;28;20128;-50
2022/10/19 11:58:57;;;;;;;2.55;0.28;;;26.00;60.40;;;;;;5050087;28;20953;-50
2022/10/19 12:01:37;;;;;;;0.40;0.20;;;26.00;60.30;;;;;;5050518;28;20124;-52
2022/10/19 12:04:27;;;;;;;0.75;0.50;;;26.00;60.70;;;;;;5050262;28;20045;-51
2022/10/19 12:07:01;;;;;;;1.15;0.30;;;26.10;60.30;;;;;;5048740;28;20128;-54
2022/10/19 12:09:39;;;;;;;1.30;0.30;;;26.10;60.20;;;;;;5046283;28;20175;-51
2022/10/19 12:12:19;;;;;;;0.35;0.35;;;26.10;60.20;;;;;;5053620;28;20065;-53
2022/10/19 12:14:51;;;;;;;2.08;0.20;;;26.20;60.30;;;;;;5049496;28;20037;-51
2022/10/19 12:17:24;;;;;;;1.77;0.30;;;26.20;60.30;;;;;;5049856;28;20064;-54
2022/10/19 12:19:55;;;;;;;5.35;0.40;;;26.20;60.20;;;;;;5049610;28;20127;-51
2022/10/19 12:22:26;;;;;;;0.20;0.13;;;26.20;60.20;;;;;;5043958;28;20047;-52
2022/10/19 12:24:55;;;;;;;2.70;0.40;;;26.20;60.20;;;;;;5044091;28;20045;-55
2022/10/19 12:27:29;;;;;;;2.17;0.30;;;26.30;60.20;;;;;;5047221;28;20047;-54
2022/10/19 12:30:03;;;;;;;0.70;0.40;;;26.30;60.20;;;;;;5047030;28;20083;-53
2022/10/19 12:32:39;;;;;;;1.50;0.25;;;26.30;60.20;;;;;;5047883;28;20072;-55
2022/10/19 12:35:16;;;;;;;2.83;0.38;;;26.30;60.10;;;;;;5040063;28;20136;-61
2022/10/19 12:37:49;;;;;;;2.85;0.32;;;26.30;60.60;;;;;;5048638;28;20053;-62
2022/10/19 12:40:22;;;;;;;2.35;0.32;;;26.30;61.00;;;;;;5053491;28;20059;-60
2022/10/19 12:42:53;;;;;;;3.30;0.30;;;26.40;61.10;;;;;;5046293;28;20506;-56
2022/10/19 12:45:30;;;;;;;3.20;0.38;;;26.40;61.20;;;;;;5043586;28;20045;-62
2022/10/19 12:48:18;;;;;;;0.98;0.50;;;26.50;61.20;;;;;;5044769;28;20044;-62
2022/10/19 12:51:06;;;;;;;2.17;0.25;;;26.50;61.10;;;;;;5048413;28;20120;-62
2022/10/19 12:53:36;;;;;;;7.43;0.50;;;26.50;61.00;;;;;;5048271;28;20141;-62
2022/10/19 12:56:06;;;;;;;1.27;0.30;;;26.50;60.90;;;;;;5048526;28;20543;-62
2022/10/19 12:58:38;;;;;;;0.50;0.30;;;26.60;60.90;;;;;;5048562;28;20167;-65
2022/10/19 13:01:09;;;;;;;0.63;0.20;;;26.60;60.70;;;;;;5049079;28;20102;-63
2022/10/19 13:03:39;;;;;;;0.30;0.20;;;26.70;60.70;;;;;;5042734;28;20555;-60
2022/10/19 13:06:11;;;;;;;2.03;0.30;;;26.80;60.50;;;;;;5048504;28;20408;-63